METAR Data
IDs: Format: Raw Decoded Include TAF

Data at: 2106 UTC 19 May 2019

KOZA 192050Z AUTO 15011G16KT 110V170 10SM CLR 32/11 A2989 RMK AO2
KOZA 192035Z AUTO 14009G15KT 040V160 10SM CLR 32/09 A2990 RMK AO2
KOZA 192015Z AUTO 16009KT 150V210 10SM CLR 32/08 A2991 RMK AO2
KOZA 191955Z AUTO 17009G18KT 10SM CLR 31/07 A2991 RMK AO2
KOZA 191935Z AUTO 17007KT 10SM CLR 31/07 A2992 RMK AO2
KOZA 191915Z AUTO 14006G17KT 10SM CLR 31/06 A2992 RMK AO2
KOZA 191855Z AUTO 15008KT 10SM CLR 30/06 A2993 RMK AO2
KOZA 191835Z AUTO 09009KT 10SM CLR 30/11 A2994 RMK AO2
KOZA 191815Z AUTO 12007KT 10SM CLR 30/10 A2995 RMK AO2
KOZA 191750Z AUTO 19009G14KT 10SM CLR 28/11 A2996 RMK AO2
KOZA 191735Z AUTO 14003KT 10SM CLR 28/11 A2997 RMK AO2
KOZA 191715Z AUTO 08003KT 10SM CLR 27/12 A2998 RMK AO2
KOZA 191655Z AUTO 09006KT 10SM CLR 26/13 A2998 RMK AO2
KOZA 191635Z AUTO 04007KT 020V080 10SM CLR 26/12 A2998 RMK AO2
KOZA 191615Z AUTO 02006KT 10SM CLR 25/14 A2998 RMK AO2
KOZA 191555Z AUTO 05007KT 10SM CLR 25/17 A2998 RMK AO2
KOZA 191535Z AUTO 02006KT 10SM CLR 25/17 A2997 RMK AO2
KOZA 191515Z AUTO 11003KT 10SM CLR 24/17 A2996 RMK AO2 LTG DSNT S
KOZA 191455Z AUTO 20005KT 10SM CLR 23/16 A2996 RMK AO2
KOZA 191435Z AUTO 20003KT 10SM CLR 22/13 A2995 RMK AO2
KOZA 191410Z AUTO 00000KT 10SM CLR 20/10 A2995 RMK AO2
KOZA 191355Z AUTO 00000KT 10SM CLR 18/08 A2995 RMK AO2
KOZA 191335Z AUTO 20009KT 10SM CLR 16/08 A2995 RMK AO2
KOZA 191315Z AUTO 00000KT 10SM CLR 13/07 A2994 RMK AO2
KOZA 191255Z AUTO 00000KT 10SM CLR 11/07 A2994 RMK AO2
KOZA 191235Z AUTO 36004KT 10SM CLR 09/06 A2993 RMK AO2
KOZA 191215Z AUTO 03003KT 10SM CLR 07/05 A2993 RMK AO2
KOZA 191155Z AUTO 30005KT 10SM CLR 07/05 A2994 RMK AO2
KOZA 191135Z AUTO 28004KT 10SM CLR 08/06 A2993 RMK AO2
KOZA 191115Z AUTO 20006KT 10SM CLR 09/06 A2993 RMK AO2
KOZA 191055Z AUTO 00000KT 10SM CLR 09/06 A2991 RMK AO2 LTG DSNT SE
KOZA 191030Z AUTO 20008KT 10SM CLR 09/06 A2990 RMK AO2 LTG DSNT S
KOZA 191015Z AUTO 00000KT 10SM CLR 10/06 A2990 RMK AO2 LTG DSNT S
KOZA 190955Z AUTO 02005KT 10SM CLR 10/06 A2989 RMK AO2
KOZA 190935Z AUTO 01008KT 10SM CLR 11/06 A2990 RMK AO2
KOZA 190915Z AUTO 02007KT 10SM CLR 10/06 A2990 RMK AO2 LTG DSNT SE
KOZA 190855Z AUTO 02006KT 10SM CLR 10/07 A2989 RMK AO2
KOZA 190835Z AUTO 04004KT 10SM CLR 10/07 A2989 RMK AO2
KOZA 190815Z AUTO 00000KT 10SM CLR 11/07 A2988 RMK AO2
KOZA 190755Z AUTO 00000KT 10SM CLR 11/07 A2988 RMK AO2
KOZA 190735Z AUTO 00000KT 10SM CLR 11/07 A2988 RMK AO2
KOZA 190715Z AUTO 18003KT 10SM CLR 11/07 A2988 RMK AO2
KOZA 190650Z AUTO 00000KT 10SM CLR 12/07 A2988 RMK AO2
KOZA 190635Z AUTO 00000KT 10SM CLR 13/07 A2988 RMK AO2
KOZA 190615Z AUTO 00000KT 10SM CLR 13/07 A2988 RMK AO2
KOZA 190555Z AUTO 00000KT 7SM CLR 15/07 A2988 RMK AO2
KOZA 190535Z AUTO 00000KT 10SM CLR 15/07 A2988 RMK AO2
KOZA 190515Z AUTO 00000KT 10SM CLR 16/07 A2987 RMK AO2
KOZA 190455Z AUTO 00000KT 10SM CLR 17/07 A2986 RMK AO2
KOZA 190435Z AUTO 17004KT 10SM CLR 16/08 A2985 RMK AO2
KOZA 190415Z AUTO 00000KT 10SM CLR 15/10 A2984 RMK AO2
KOZA 190355Z AUTO 18004KT 10SM CLR 16/09 A2983 RMK AO2
KOZA 190335Z AUTO 00000KT 10SM CLR 17/09 A2983 RMK AO2
KOZA 190310Z AUTO 00000KT 10SM CLR 18/09 A2982 RMK AO2
KOZA 190255Z AUTO 28005KT 10SM CLR 19/08 A2981 RMK AO2
KOZA 190235Z AUTO 28005KT 10SM CLR 19/10 A2980 RMK AO2
KOZA 190215Z AUTO 31008KT 10SM CLR 21/07 A2979 RMK AO2
KOZA 190155Z AUTO 02004KT 10SM CLR 22/07 A2978 RMK AO2
KOZA 190135Z AUTO 36004KT 10SM CLR 25/07 A2977 RMK AO2
KOZA 190115Z AUTO 01006KT 10SM CLR 27/05 A2976 RMK AO2
KOZA 190055Z AUTO 33004KT 10SM CLR 28/03 A2975 RMK AO2
KOZA 190035Z AUTO 33004KT 10SM CLR 30/03 A2974 RMK AO2
KOZA 190015Z AUTO 33006G14KT 10SM CLR 30/02 A2974 RMK AO2
KOZA 182355Z AUTO 31009G16KT 10SM CLR 31/03 A2973 RMK AO2
KOZA 182330Z AUTO 32008G19KT 10SM CLR 31/03 A2973 RMK AO2
KOZA 182315Z AUTO 31013G20KT 10SM CLR 31/03 A2973 RMK AO2
KOZA 182250Z AUTO 33007G17KT 10SM CLR 31/03 A2974 RMK AO2
KOZA 182235Z AUTO 28012G19KT 10SM CLR 31/04 A2974 RMK AO2
KOZA 182210Z AUTO 33011G19KT 10SM CLR 31/03 A2974 RMK AO2
KOZA 182155Z AUTO 30012G18KT 260V330 10SM CLR 31/03 A2975 RMK AO2
KOZA 182135Z AUTO 29013G18KT 10SM CLR 30/03 A2975 RMK AO2
KOZA 182115Z AUTO 32013G20KT 10SM CLR 31/03 A2975 RMK AO2
KOZA 182055Z AUTO 30009G18KT 250V320 10SM CLR 30/03 A2975 RMK AO2
KOZA 182035Z AUTO 30012G18KT 10SM CLR 30/03 A2976 RMK AO2
KOZA 182015Z AUTO 30016G25KT 10SM CLR 30/03 A2977 RMK AO2
KOZA 181955Z AUTO 30015G27KT 10SM CLR 30/03 A2977 RMK AO2
KOZA 181935Z AUTO 30015G23KT 10SM CLR 30/03 A2977 RMK AO2
KOZA 181910Z AUTO 31018G25KT 10SM CLR 30/04 A2978 RMK AO2
KOZA 181855Z AUTO 30016G25KT 10SM CLR 30/05 A2978 RMK AO2
KOZA 181835Z AUTO 29012KT 10SM CLR 30/05 A2979 RMK AO2
KOZA 181815Z AUTO 29012G20KT 10SM CLR 29/04 A2979 RMK AO2
KOZA 181755Z AUTO 29015G26KT 10SM CLR 29/03 A2979 RMK AO2 LTG DSNT E
KOZA 181735Z AUTO 28013G25KT 10SM CLR 28/03 A2980 RMK AO2
KOZA 181715Z AUTO 30016G24KT 10SM CLR 28/03 A2980 RMK AO2
KOZA 181655Z AUTO 29013G23KT 10SM CLR 28/03 A2979 RMK AO2
KOZA 181635Z AUTO 29017G24KT 10SM CLR 27/02 A2980 RMK AO2
KOZA 181615Z AUTO 29010G21KT 10SM CLR 27/03 A2979 RMK AO2
KOZA 181555Z AUTO 29015G24KT 10SM CLR 27/03 A2980 RMK AO2 LTG DSNT E
KOZA 181530Z AUTO 29015G25KT 10SM CLR 27/11 A2979 RMK AO2
KOZA 181515Z AUTO 29015G25KT 10SM SCT031 26/14 A2979 RMK AO2
KOZA 181455Z AUTO 25007G16KT 10SM SCT016 SCT022 SCT027 26/18 A2979 RMK AO2
KOZA 181435Z AUTO 23010G17KT 7SM SCT016 SCT022 25/20 A2979 RMK AO2 LTG DSNT NE
KOZA 181415Z AUTO 20010G23KT 7SM SCT012 24/20 A2979 RMK AO2
KOZA 181355Z AUTO 20011G23KT 7SM SCT012 24/20 A2977 RMK AO2 LTG DSNT NE
KOZA 181335Z AUTO 22007KT 7SM SCT010 SCT080 23/21 A2977 RMK AO2
KOZA 181315Z AUTO 23009G19KT 10SM BKN010 BKN016 BKN031 22/20 A2976 RMK AO2 LTG DSNT N
KOZA 181255Z AUTO 19015G25KT 10SM OVC010 23/20 A2975 RMK AO2 LTG DSNT N
KOZA 181230Z AUTO 19016G27KT 7SM OVC010 22/21 A2973 RMK AO2
KOZA 181215Z AUTO 20016G26KT 10SM OVC010 22/20 A2972 RMK AO2 LTG DSNT N
KOZA 181150Z AUTO 19015G26KT 10SM OVC012 23/20 A2971 RMK AO2 LTG DSNT N
KOZA 181135Z AUTO 19018G27KT 10SM OVC012 23/20 A2971 RMK AO2 LTG DSNT NW THRU NE
KOZA 181115Z AUTO 19012G27KT 10SM OVC012 23/20 A2970 RMK AO2 LTG DSNT NW THRU NE
KOZA 181055Z AUTO 19017G26KT 10SM OVC014 23/20 A2971 RMK AO2 LTG DSNT NE AND NW
KOZA 181035Z AUTO 18014G25KT 10SM OVC014 23/20 A2972 RMK AO2 LTG DSNT NE AND NW
KOZA 181015Z AUTO 18015G21KT 10SM OVC014 23/20 A2971 RMK AO2 LTG DSNT N
KOZA 180955Z AUTO 18014G26KT 10SM VCTS OVC014 23/20 A2971 RMK AO2 LTG DSNT N
KOZA 180935Z AUTO 18017G28KT 10SM OVC014 23/20 A2970 RMK AO2 LTG DSNT N AND NE
KOZA 180915Z AUTO 18014G27KT 10SM OVC014 23/20 A2970 RMK AO2 LTG DSNT N AND NE